Latest Weather Observations for Norfolk Island

IDN60801

Issued at 5:32 pm EST Friday 1 July 2022 (issued every 10 minutes, with the page automatically refreshed every 10 minutes)

About weather observations | Map of weather stations | Latest weather observations for NSW | Other Formats
Station Details ID: 200288 Name: NORFOLK ISLAND AERO Lat: -29.04 Lon: 167.94 Height: 111.73 m
Data from the previous 72 hours. | See also: Recent months at Norfolk Island

Observations are collected in the New South Wales time zone (Eastern Standard Time) which includes daylight savings in the summer period. Therefore 'Rain since 9am' totals and other values are based on the New South Wales time zone, which may differ from local time.

Date/Time
EST
Temp
°C
App
Temp
°C
Dew
Point
°C
Rel
Hum
%
Delta-T
°C
Wind Press
QNH
hPa
Press
MSL
hPa
Rain since
9am
mm
Dir  Spd
km/h
Gust
km/h
Spd
kts
Gust
kts
01/05:30pm 14.4 14.7 10.8 79 1.9 CALM 0 0 0 0 1023.2 1023.0 0.0
01/05:00pm 14.3 14.5 10.5 78 2.0 CALM 0 0 0 0 1022.7 1022.5 0.0
01/04:30pm 15.1 15.4 10.9 76 2.2 CALM 0 0 0 0 1022.2 1022.1 0.0
01/04:00pm 15.6 16.1 11.6 77 2.2 CALM 0 0 0 0 1022.5 1022.4 0.0
01/03:30pm 16.8 17.3 11.5 71 2.9 CALM 0 0 0 0 1023.1 1022.9 0.0
01/03:00pm 17.2 16.1 10.8 66 3.4 SSW 7 9 4 5 1023.1 1022.9 0.0
01/02:30pm 17.6 15.4 10.7 64 3.7 SSW 13 15 7 8 1023.0 1022.8 0.0
01/02:00pm 18.4 16.3 11.0 62 4.0 SW 13 20 7 11 1022.8 1022.6 0.0
01/01:30pm 18.3 15.6 11.6 65 3.7 SW 17 22 9 12 1022.5 1022.4 0.0
01/01:00pm 18.0 15.3 11.8 67 3.4 WSW 17 26 9 14 1022.7 1022.5 0.0
01/12:30pm 18.6 17.0 10.2 58 4.5 WSW 9 13 5 7 1022.7 1022.5 0.0
01/12:00pm 18.6 16.5 9.7 56 4.7 WNW 11 13 6 7 1023.1 1022.9 0.0
01/11:30am 18.2 16.1 9.8 58 4.5 SW 11 15 6 8 1023.1 1022.9 0.0
01/11:00am 18.4 17.0 9.5 56 4.7 S 7 13 4 7 1023.5 1023.3 0.0
01/10:30am 18.2 16.0 9.5 57 4.6 WSW 11 19 6 10 1024.0 1023.8 0.0
01/10:00am 18.0 15.9 9.6 58 4.4 WSW 11 15 6 8 1024.5 1024.3 0.0
01/09:30am 18.0 16.2 9.6 58 4.4 WNW 9 13 5 7 1024.6 1024.4 0.0
01/09:00am 18.8 16.8 10.1 57 4.6 WNW 11 13 6 7 1024.6 1024.4 0.0
01/08:30am 17.8 16.7 9.9 60 4.2 WNW 6 13 3 7 1024.7 1024.5 0.0
01/08:00am 17.6 15.9 9.8 60 4.1 S 9 15 5 8 1024.9 1024.7 0.2
01/07:30am 17.4 18.1 12.3 72 2.8 CALM 0 0 0 0 1024.9 1024.7 0.2
01/07:00am 15.9 15.2 11.9 77 2.2 NNE 7 9 4 5 1023.8 1023.6 0.2
01/06:30am 15.5 15.9 11.1 75 2.4 CALM 0 0 0 0 1023.7 1023.5 0.2
01/06:00am 15.6 15.6 9.9 69 3.0 CALM 0 0 0 0 1023.8 1023.6 0.2
01/05:30am 15.3 14.1 9.4 68 3.1 N 6 9 3 5 1023.2 1023.0 0.2
01/05:00am 14.3 14.3 9.7 74 2.4 CALM 0 0 0 0 1023.0 1022.8 0.2
01/04:30am 15.0 14.0 8.7 66 3.2 N 4 7 2 4 1022.7 1022.4 0.2
01/04:00am 14.6 13.2 9.6 72 2.6 NW 7 9 4 5 1022.3 1022.1 0.2
01/03:30am 14.5 12.9 10.1 75 2.3 W 9 11 5 6 1022.4 1022.2 0.2
01/03:00am 14.9 13.1 9.5 70 2.8 W 9 11 5 6 1022.8 1022.5 0.2
01/02:30am 15.1 15.1 9.7 70 2.8 CALM 0 0 0 0 1022.9 1022.6 0.2
01/02:00am 15.4 14.2 9.5 68 3.1 WSW 6 9 3 5 1023.7 1023.5 0.2
01/01:30am 15.3 13.9 9.7 69 2.9 SW 7 9 4 5 1023.7 1023.5 0.2
01/01:00am 14.4 14.2 9.0 70 2.7 CALM 0 4 0 2 1023.6 1023.4 0.2
01/12:30am 15.5 15.4 9.4 67 3.2 CALM 0 0 0 0 1023.3 1023.1 0.2
01/12:00am 16.2 14.9 10.1 67 3.2 SSE 7 9 4 5 1024.1 1023.9 0.2
 
Date/Time
EST
Temp
°C
App
Temp
°C
Dew
Point
°C
Rel
Hum
%
Delta-T
°C
Wind Press
QNH
hPa
Press
MSL
hPa
Rain since
9am
mm
Dir  Spd
km/h
Gust
km/h
Spd
kts
Gust
kts
30/11:30pm 16.4 14.3 9.6 64 3.6 S 11 17 6 9 1023.8 1023.6 0.2
30/11:00pm 16.6 13.6 9.3 62 3.8 SSW 15 22 8 12 1024.4 1024.2 0.2
30/10:30pm 16.3 14.7 10.2 67 3.2 SSW 9 13 5 7 1024.4 1024.2 0.2
30/10:00pm 15.8 14.6 10.3 70 2.9 S 7 9 4 5 1024.0 1023.8 0.2
30/09:30pm 15.5 14.5 10.3 71 2.7 S 6 7 3 4 1023.8 1023.6 0.2
30/09:00pm 15.4 14.3 10.6 73 2.5 S 7 11 4 6 1023.9 1023.7 0.2
30/08:30pm 15.3 14.5 11.1 76 2.3 ESE 6 9 3 5 1023.6 1023.4 0.2
30/08:00pm 14.3 14.2 10.9 80 1.8 SE 2 7 1 4 1023.4 1023.2 0.2
30/07:30pm 14.6 14.9 11.0 79 1.9 CALM 0 0 0 0 1023.4 1023.2 0.2
30/07:00pm 14.1 13.4 9.9 76 2.2 SE 4 7 2 4 1023.5 1023.3 0.2
30/06:30pm 15.0 13.7 9.8 71 2.7 E 7 11 4 6 1023.2 1023.0 0.2
30/06:00pm 15.5 14.3 9.4 67 3.2 SE 6 9 3 5 1023.4 1023.2 0.2
30/05:30pm 16.1 14.9 10.4 69 3.0 SE 7 11 4 6 1023.0 1022.8 0.2
30/05:00pm 16.1 14.3 10.8 71 2.8 S 11 17 6 9 1022.9 1022.6 0.2
30/04:30pm 16.5 14.5 11.4 72 2.8 SSE 13 17 7 9 1022.9 1022.6 0.2
30/04:00pm 16.6 14.5 11.1 70 3.0 S 13 17 7 9 1023.0 1022.8 0.2
30/03:30pm 16.7 14.7 10.3 66 3.4 S 11 17 6 9 1022.7 1022.4 0.2
30/03:00pm 17.1 15.1 11.4 69 3.1 SSW 13 17 7 9 1022.9 1022.6 0.2
30/02:30pm 18.1 15.6 11.0 63 3.9 SSW 15 20 8 11 1022.9 1022.6 0.2
30/02:00pm 18.2 15.6 10.8 62 4.0 SSW 15 22 8 12 1022.8 1022.5 0.2
30/01:30pm 18.1 15.7 10.0 59 4.3 S 13 19 7 10 1022.8 1022.5 0.2
30/01:00pm 17.9 15.6 10.3 61 4.1 S 13 19 7 10 1022.8 1022.5 0.2
30/12:30pm 18.3 16.1 10.7 61 4.1 SE 13 20 7 11 1022.5 1022.3 0.2
30/12:00pm 17.9 15.7 10.8 63 3.8 SE 13 17 7 9 1022.3 1022.1 0.2
30/11:30am 17.7 15.6 11.3 66 3.5 SE 13 20 7 11 1022.4 1022.2 0.2
30/11:00am 18.1 15.8 11.7 66 3.5 SE 15 24 8 13 1022.5 1022.3 0.2
30/10:30am 18.1 15.5 10.7 62 4.0 SE 15 28 8 15 1022.9 1022.6 0.0
30/10:00am 18.2 14.7 10.1 59 4.3 SE 19 26 10 14 1022.4 1022.2 0.0
30/09:30am 18.0 14.4 9.9 59 4.3 SSE 19 30 10 16 1023.3 1023.1 0.0
30/09:00am 16.9 13.6 11.0 68 3.2 SSE 19 28 10 15 1023.6 1023.4 0.0
30/08:30am 17.0 14.0 10.6 66 3.4 SSE 17 24 9 13 1023.6 1023.4 0.0
30/08:00am 17.5 14.1 11.1 66 3.5 SE 20 30 11 16 1023.0 1022.8 -
30/07:30am 16.5 13.0 11.0 70 3.0 SE 20 32 11 17 1022.4 1022.2 -
30/07:00am 16.7 13.0 9.6 63 3.7 SSE 19 28 10 15 1022.3 1022.1 -
30/06:30am 16.4 12.7 9.6 64 3.6 SSE 19 30 10 16 1022.2 1022.0 -
30/06:00am 16.2 12.8 10.5 69 3.0 SSE 19 32 10 17 1021.6 1021.4 -
30/05:30am 16.1 11.7 9.1 63 3.6 SSE 22 32 12 17 1021.0 1020.8 -
30/05:00am 16.2 12.1 8.7 61 3.8 SSE 20 32 11 17 1021.0 1020.8 -
30/04:30am 16.1 11.9 8.3 60 4.0 S 20 35 11 19 1020.5 1020.3 -
30/04:00am 15.7 11.1 8.2 61 3.8 S 22 32 12 17 1020.4 1020.2 -
30/03:30am 16.1 12.0 10.0 67 3.2 SSE 22 33 12 18 1020.3 1020.1 -
30/03:00am 16.1 11.5 8.1 59 4.0 S 22 35 12 19 1020.4 1020.2 -
30/02:30am 16.1 12.1 9.1 63 3.6 S 20 35 11 19 1020.5 1020.3 -
30/02:00am 16.0 11.1 8.5 61 3.8 S 24 35 13 19 1020.5 1020.3 0.0
30/01:30am 15.8 11.5 9.5 66 3.3 S 22 32 12 17 1020.6 1020.4 -
30/01:00am 15.5 10.5 8.0 61 3.8 S 24 33 13 18 1020.6 1020.4 -
30/12:30am 16.0 11.9 8.7 62 3.7 S 20 33 11 18 1020.5 1020.3 -
30/12:00am 15.4 10.3 7.7 60 3.8 S 24 37 13 20 1020.4 1020.2 -
 
Date/Time
EST
Temp
°C
App
Temp
°C
Dew
Point
°C
Rel
Hum
%
Delta-T
°C
Wind Press
QNH
hPa
Press
MSL
hPa
Rain since
9am
mm
Dir  Spd
km/h
Gust
km/h
Spd
kts
Gust
kts
29/11:30pm 16.0 11.6 9.0 63 3.6 S 22 33 12 18 1020.3 1020.1 -
29/11:00pm 15.7 10.9 8.7 63 3.6 S 24 35 13 19 1020.2 1020.0 -
29/10:30pm 16.2 12.0 9.6 65 3.5 S 22 33 12 18 1020.1 1019.9 -
29/10:00pm 16.0 11.2 8.7 62 3.7 S 24 41 13 22 1020.0 1019.8 -
29/09:30pm 16.2 11.7 10.1 67 3.2 S 24 32 13 17 1019.7 1019.5 -
29/09:00pm 16.0 10.3 8.5 61 3.8 S 28 41 15 22 1019.5 1019.3 -
29/08:30pm 16.4 11.4 9.6 64 3.6 S 26 39 14 21 1019.3 1019.1 -
29/08:10pm 16.2 11.2 10.9 71 2.8 S 28 46 15 25 1019.2 1019.0 -
29/08:00pm 16.4 10.6 10.9 70 2.9 S 32 44 17 24 1019.1 1018.9 0.0
29/07:39pm 16.6 11.1 10.5 67 3.3 S 30 48 16 26 1019.0 1018.8 -
29/07:30pm 16.5 10.4 10.6 68 3.2 S 33 48 18 26 1018.9 1018.7 -
29/07:22pm 16.6 11.3 11.3 71 2.9 S 30 48 16 26 1018.8 1018.6 -
29/07:00pm 16.7 11.9 11.6 72 2.8 S 28 39 15 21 1018.6 1018.4 -
29/06:30pm 16.6 12.1 11.5 72 2.8 S 26 37 14 20 1018.4 1018.2 -
29/06:11pm 16.7 11.4 11.4 71 2.9 S 30 48 16 26 1018.0 1017.8 -
29/06:00pm 16.6 11.5 12.0 74 2.5 S 30 43 16 23 1017.8 1017.6 -
29/05:39pm 16.8 11.9 11.3 70 3.0 SSW 28 46 15 25 1017.7 1017.5 -
29/05:30pm 16.7 11.2 11.8 73 2.7 S 32 46 17 25 1017.6 1017.4 -
29/05:00pm 17.0 12.5 12.7 76 2.4 S 28 48 15 26 1017.1 1016.9 -
29/04:35pm 16.9 12.0 12.6 76 2.4 S 30 52 16 28 1016.8 1016.6 -
29/04:30pm 17.1 12.7 12.8 76 2.4 S 28 41 15 22 1016.8 1016.6 -
29/04:06pm 17.1 11.4 13.0 77 2.3 SSW 35 54 19 29 1016.5 1016.3 -
29/04:00pm 17.1 10.5 12.6 75 2.5 SSW 39 54 21 29 1016.4 1016.2 -
29/03:30pm 17.5 12.2 13.2 76 2.4 SSW 33 52 18 28 1015.9 1015.7 -
29/03:00pm 17.6 11.5 13.1 75 2.5 SSW 37 56 20 30 1015.6 1015.4 -
29/02:49pm 17.8 12.4 12.7 72 2.9 SSW 33 52 18 28 1015.6 1015.4 -
29/02:30pm 18.0 11.1 12.9 72 2.9 SSW 41 54 22 29 1015.2 1014.9 -
29/02:01pm 18.2 12.2 13.3 73 2.8 SSW 37 56 20 30 1015.1 1014.8 -
29/02:00pm 18.3 12.1 13.8 75 2.6 SSW 39 56 21 30 1015.2 1014.9 -
29/01:31pm 18.1 12.7 14.0 77 2.4 SSW 35 54 19 29 1015.2 1014.9 -
29/01:30pm 18.1 12.7 14.0 77 2.4 SSW 35 50 19 27 1015.2 1014.9 -
29/01:00pm 17.7 12.2 13.6 77 2.3 SSW 35 56 19 30 1014.7 1014.4 -
29/12:30pm 18.0 12.1 13.7 76 2.5 SSW 37 57 20 31 1014.5 1014.2 -
29/12:13pm 18.5 13.3 14.4 77 2.4 SSW 35 56 19 30 1014.6 1014.3 -
29/12:00pm 18.3 13.4 14.2 77 2.4 SSW 33 50 18 27 1014.6 1014.3 -
29/11:40am 18.4 12.2 13.7 74 2.7 SSW 39 57 21 31 1014.5 1014.2 -
29/11:30am 17.7 13.6 15.0 84 1.6 SSW 30 44 16 24 1014.6 1014.3 0.0
29/11:04am 18.8 12.4 13.2 70 3.2 SSW 39 57 21 31 1014.4 1014.1 0.0
29/11:00am 18.7 11.9 13.1 70 3.2 SSW 41 57 22 31 1014.4 1014.1 0.0
29/10:30am 18.3 13.8 13.8 75 2.6 SSW 30 52 16 28 1014.5 1014.2 0.0
29/10:06am 18.1 13.3 13.0 72 2.9 SSW 30 48 16 26 1014.4 1014.1 0.0
29/10:00am 18.7 14.0 14.2 75 2.6 SSW 32 44 17 24 1014.4 1014.1 0.0
29/09:35am 18.7 13.5 13.3 71 3.1 SSW 33 54 18 29 1014.2 1013.9 0.0
29/09:30am 18.6 13.1 13.7 73 2.8 SSW 35 52 19 28 1014.2 1013.9 0.0
29/09:07am 18.4 13.7 13.1 71 3.0 SSW 30 52 16 28 1014.1 1013.8 0.0
29/09:00am 18.5 13.9 13.6 73 2.8 SSW 30 46 16 25 1014.1 1013.8 0.0
29/08:30am 17.9 13.5 13.0 73 2.8 SSW 28 46 15 25 1014.1 1013.8 0.0
29/08:00am 18.3 13.7 13.4 73 2.8 SSW 30 50 16 27 1013.8 1013.5 16.8
29/07:30am 17.6 12.2 12.9 74 2.6 SSW 33 56 18 30 1013.2 1013.0 16.8
29/07:00am 17.5 11.0 12.8 74 2.6 SSW 39 61 21 33 1012.6 1012.4 16.8
29/06:31am 17.3 10.8 13.0 76 2.4 SSW 39 57 21 31 1012.0 1011.8 16.8
29/06:30am 17.3 10.5 13.0 76 2.4 SSW 41 57 22 31 1011.9 1011.7 16.8
29/06:21am 17.1 11.3 12.8 76 2.4 SSW 35 56 19 30 1011.8 1011.6 16.8
29/06:00am 17.0 10.9 13.1 78 2.2 SSW 37 50 20 27 1011.4 1011.2 16.8
29/05:47am 16.9 12.7 13.6 81 1.9 SSW 28 46 15 25 1011.2 1011.0 16.8
29/05:30am 16.9 11.0 12.4 75 2.5 SSW 35 52 19 28 1010.7 1010.5 16.8
29/05:00am 17.2 12.4 12.9 76 2.4 SSW 30 63 16 34 1010.1 1009.9 16.8
29/04:35am 16.7 11.9 13.0 79 2.1 SW 30 48 16 26 1009.5 1009.3 16.8
29/04:30am 16.8 12.3 13.7 82 1.8 SW 30 46 16 25 1009.4 1009.2 16.8
29/04:00am 17.0 11.3 12.9 77 2.3 SW 35 57 19 31 1009.0 1008.8 16.8
29/03:38am 16.9 11.0 12.4 75 2.5 SW 35 54 19 29 1008.9 1008.7 16.8
29/03:30am 16.8 10.4 12.1 74 2.6 WSW 37 54 20 29 1008.8 1008.6 16.8
29/03:04am 16.6 10.3 12.4 76 2.3 SW 37 56 20 30 1008.5 1008.3 16.8
29/03:00am 16.6 10.0 12.6 77 2.2 SW 39 56 21 30 1008.5 1008.3 16.8
29/02:30am 16.5 11.6 13.6 83 1.6 WSW 32 50 17 27 1008.4 1008.2 16.6
29/02:00am 16.5 10.9 13.2 81 1.9 WSW 35 56 19 30 1008.2 1008.0 16.6
29/01:34am 16.5 10.9 13.4 82 1.7 W 35 54 19 29 1008.2 1008.0 16.6
29/01:30am 16.6 11.1 13.7 83 1.6 W 35 50 19 27 1008.2 1008.0 16.6
29/01:00am 16.6 11.2 12.9 79 2.1 W 33 56 18 30 1008.2 1008.0 16.6
29/12:37am 16.3 10.3 13.2 82 1.7 W 37 56 20 30 1008.6 1008.4 16.6
29/12:30am 16.3 9.9 13.2 82 1.7 W 39 54 21 29 1008.6 1008.4 16.6
29/12:00am 16.1 9.6 13.0 82 1.7 W 39 59 21 32 1008.7 1008.5 16.6
 
Date/Time
EST
Temp
°C
App
Temp
°C
Dew
Point
°C
Rel
Hum
%
Delta-T
°C
Wind Press
QNH
hPa
Press
MSL
hPa
Rain since
9am
mm
Dir  Spd
km/h
Gust
km/h
Spd
kts
Gust
kts
28/11:36pm 16.0 9.4 12.6 80 1.9 W 39 59 21 32 1008.8 1008.6 16.6
28/11:30pm 16.2 10.0 13.7 85 1.4 W 39 52 21 28 1008.9 1008.7 16.6
28/11:22pm 16.1 9.9 13.8 86 1.3 W 39 57 21 31 1008.8 1008.6 16.6
28/11:00pm 15.9 9.6 13.6 86 1.3 WNW 39 59 21 32 1009.1 1008.9 15.6
28/10:56pm 17.0 11.4 13.3 79 2.1 WNW 35 54 19 29 1008.9 1008.7 14.4
28/10:30pm 16.7 11.5 12.8 78 2.2 WNW 32 48 17 26 1009.2 1009.0 14.4
28/10:00pm 16.7 11.3 12.8 78 2.2 WNW 33 52 18 28 1009.5 1009.3 14.4
28/09:30pm 17.2 11.7 11.9 71 2.9 W 32 56 17 30 1009.8 1009.6 14.4
28/09:08pm 17.3 11.5 11.6 69 3.1 WNW 33 52 18 28 1009.8 1009.6 14.4
28/09:00pm 17.2 10.8 10.8 66 3.5 WNW 35 50 19 27 1010.0 1009.8 14.4
28/08:30pm 16.9 13.2 12.8 77 2.3 WNW 24 37 13 20 1010.1 1009.9 14.4
28/08:00pm 16.5 12.0 11.4 72 2.8 WNW 26 43 14 23 1010.5 1010.3 14.4
28/07:30pm 16.8 10.9 10.6 67 3.3 WNW 32 46 17 25 1010.7 1010.5 14.4
28/07:00pm 15.9 11.4 12.5 80 1.9 WSW 28 41 15 22 1011.2 1011.0 14.4
28/06:50pm 16.6 12.2 12.8 78 2.1 WSW 28 46 15 25 1011.0 1010.8 14.4
28/06:30pm 17.1 11.8 11.2 68 3.2 W 30 46 16 25 1010.9 1010.7 14.4
28/06:00pm 17.0 11.4 11.5 70 3.0 WNW 32 50 17 27 1010.8 1010.6 14.4
28/05:30pm 17.1 11.5 12.0 72 2.8 W 33 48 18 26 1010.5 1010.3 14.4
28/05:00pm 17.2 11.3 11.2 68 3.3 W 33 44 18 24 1010.2 1010.0 14.4
28/04:30pm 17.1 12.0 12.0 72 2.8 W 30 43 16 23 1010.0 1009.8 14.4

Other formats

Comma delimited format used in spreadsheet applications
http://www.bom.gov.au/fwo/IDN60801/IDN60801.94996.axf

JavaScript Object Notation format (JSON) in row-major order
http://www.bom.gov.au/fwo/IDN60801/IDN60801.94996.json

Data quality

Most of these data are generated automatically and are frequently updated. Quality checks on data are not normally performed. It is possible for incorrect values to appear. Refer to information at About Latest Weather Observations and please check the disclaimer before using these data.